Private Wetterstation Sandau
Wetterdaten: Mittwoch, 04.04.2012
Datum Zeit Temp. A. Feuchte A. Luftdruck Regen Wind Richtung Richtung Taupunkt Windchill
04.04.2012 00:02 5,8 C 89 % 1005,8 hPa 0,0 l/m 7,6 km/h (2 Bft) O 90 4,1 C 4,2 C
04.04.2012 00:07 5,8 C 89 % 1005,9 hPa 0,0 l/m 7,2 km/h (2 Bft) O-SO 112 4,1 C 4,3 C
04.04.2012 00:12 5,8 C 89 % 1005,8 hPa 0,0 l/m 5,0 km/h (1 Bft) O-NO 67 4,1 C 5,0 C
04.04.2012 00:17 5,8 C 89 % 1005,8 hPa 0,0 l/m 7,2 km/h (2 Bft) O 90 4,1 C 4,3 C
04.04.2012 00:22 5,8 C 89 % 1005,8 hPa 0,0 l/m 7,6 km/h (2 Bft) O-NO 67 4,1 C 4,2 C
04.04.2012 00:27 5,7 C 89 % 1005,7 hPa 0,0 l/m 6,1 km/h (2 Bft) O-NO 67 4,0 C 4,5 C
04.04.2012 00:32 5,6 C 89 % 1005,7 hPa 0,0 l/m 3,6 km/h (1 Bft) O 90 3,9 C 5,6 C
04.04.2012 00:37 5,6 C 89 % 1005,5 hPa 0,0 l/m 8,6 km/h (2 Bft) O 90 3,9 C 3,7 C
04.04.2012 00:42 5,6 C 89 % 1005,7 hPa 0,0 l/m 4,7 km/h (1 Bft) O-NO 67 3,9 C 4,9 C
04.04.2012 00:47 5,6 C 89 % 1005,8 hPa 0,0 l/m 3,6 km/h (1 Bft) O 90 3,9 C 5,6 C
04.04.2012 00:52 5,6 C 89 % 1005,6 hPa 0,0 l/m 2,5 km/h (1 Bft) O-NO 67 3,9 C 5,6 C
04.04.2012 00:57 5,6 C 89 % 1005,6 hPa 0,0 l/m 11,2 km/h (2 Bft) O-NO 67 3,9 C 3,1 C
04.04.2012 01:02 5,5 C 89 % 1005,6 hPa 0,0 l/m 4,7 km/h (1 Bft) O 90 3,8 C 4,8 C
04.04.2012 01:07 5,5 C 89 % 1005,4 hPa 0,0 l/m 6,1 km/h (2 Bft) O-NO 67 3,8 C 4,3 C
04.04.2012 01:12 5,5 C 89 % 1005,3 hPa 0,0 l/m 4,0 km/h (1 Bft) O-NO 67 3,8 C 5,5 C
04.04.2012 01:17 5,4 C 89 % 1005,5 hPa 0,0 l/m 5,8 km/h (2 Bft) O-NO 67 3,7 C 4,2 C
04.04.2012 01:22 5,4 C 89 % 1005,4 hPa 0,0 l/m 11,5 km/h (2 Bft) NO 45 3,7 C 2,8 C
04.04.2012 01:27 5,4 C 89 % 1005,3 hPa 0,0 l/m 15,1 km/h (3 Bft) O-NO 67 3,7 C 2,2 C
04.04.2012 01:32 5,4 C 89 % 1005,3 hPa 0,0 l/m 6,5 km/h (2 Bft) O 90 3,7 C 4,0 C
04.04.2012 01:37 5,4 C 89 % 1005,2 hPa 0,0 l/m 7,9 km/h (2 Bft) NO 45 3,7 C 3,6 C
04.04.2012 01:42 5,3 C 89 % 1005,1 hPa 0,0 l/m 9,4 km/h (2 Bft) NO 45 3,6 C 3,1 C
04.04.2012 01:47 5,3 C 89 % 1005,0 hPa 0,0 l/m 18,7 km/h (3 Bft) O-NO 67 3,6 C 1,6 C
04.04.2012 01:52 5,3 C 89 % 1005,1 hPa 0,0 l/m 5,0 km/h (1 Bft) O-NO 67 3,6 C 4,4 C
04.04.2012 01:57 5,3 C 89 % 1005,1 hPa 0,0 l/m 7,9 km/h (2 Bft) O-NO 67 3,6 C 3,5 C
04.04.2012 02:02 5,2 C 89 % 1005,1 hPa 0,0 l/m 5,8 km/h (2 Bft) O-NO 67 3,5 C 4,0 C
04.04.2012 02:07 5,2 C 89 % 1005,2 hPa 0,0 l/m 4,3 km/h (1 Bft) O 90 3,5 C 5,2 C
04.04.2012 02:12 5,2 C 89 % 1005,2 hPa 0,0 l/m 4,7 km/h (1 Bft) O-NO 67 3,5 C 4,4 C
04.04.2012 02:17 5,2 C 89 % 1005,3 hPa 0,0 l/m 1,8 km/h (1 Bft) NO 45 3,5 C 5,2 C
04.04.2012 02:22 5,2 C 89 % 1005,2 hPa 0,0 l/m 11,2 km/h (2 Bft) O 90 3,5 C 2,7 C
04.04.2012 02:27 5,2 C 89 % 1005,1 hPa 0,0 l/m 6,1 km/h (2 Bft) N-NO 22 3,5 C 3,9 C
04.04.2012 02:32 5,2 C 89 % 1005,0 hPa 0,0 l/m 9,4 km/h (2 Bft) N 360 3,5 C 3,0 C
04.04.2012 02:37 5,2 C 89 % 1005,1 hPa 0,0 l/m 0,0 km/h (0 Bft) O-NO 67 3,5 C 5,2 C
04.04.2012 02:42 5,2 C 89 % 1005,1 hPa 0,0 l/m 9,4 km/h (2 Bft) O-NO 67 3,5 C 3,0 C
04.04.2012 02:47 5,2 C 89 % 1005,1 hPa 0,0 l/m 2,2 km/h (1 Bft) O-NO 67 3,5 C 5,2 C
04.04.2012 02:52 5,2 C 89 % 1004,9 hPa 0,0 l/m 4,7 km/h (1 Bft) O-NO 67 3,5 C 4,4 C
04.04.2012 02:57 5,2 C 89 % 1004,9 hPa 0,0 l/m 5,0 km/h (1 Bft) O-NO 67 3,5 C 4,3 C
04.04.2012 03:02 5,2 C 89 % 1004,9 hPa 0,0 l/m 7,6 km/h (2 Bft) O-NO 67 3,5 C 3,5 C
04.04.2012 03:07 5,2 C 89 % 1005,0 hPa 0,0 l/m 5,8 km/h (2 Bft) O 90 3,5 C 4,0 C
04.04.2012 03:12 5,2 C 89 % 1005,1 hPa 0,0 l/m 4,3 km/h (1 Bft) O-NO 67 3,5 C 5,2 C
04.04.2012 03:17 5,2 C 90 % 1005,0 hPa 0,0 l/m 6,1 km/h (2 Bft) O 90 3,7 C 3,9 C
04.04.2012 03:22 5,2 C 89 % 1004,6 hPa 0,0 l/m 18,4 km/h (3 Bft) O-NO 67 3,5 C 1,5 C
04.04.2012 03:27 5,2 C 89 % 1004,4 hPa 0,0 l/m 15,5 km/h (3 Bft) NO 45 3,5 C 1,9 C
04.04.2012 03:32 5,2 C 89 % 1004,6 hPa 0,0 l/m 4,0 km/h (1 Bft) NO 45 3,5 C 5,2 C
04.04.2012 03:37 5,2 C 89 % 1004,8 hPa 0,0 l/m 4,0 km/h (1 Bft) O-NO 67 3,5 C 5,2 C
04.04.2012 03:42 5,2 C 89 % 1004,9 hPa 0,0 l/m 7,9 km/h (2 Bft) O-NO 67 3,5 C 3,4 C
04.04.2012 03:47 5,2 C 90 % 1005,0 hPa 0,0 l/m 9,0 km/h (2 Bft) O-NO 67 3,7 C 3,1 C
04.04.2012 03:52 5,2 C 90 % 1005,0 hPa 0,0 l/m 5,8 km/h (2 Bft) O-NO 67 3,7 C 4,0 C
04.04.2012 03:57 5,2 C 90 % 1004,8 hPa 0,0 l/m 6,5 km/h (2 Bft) O-NO 67 3,7 C 3,8 C
04.04.2012 04:02 5,3 C 90 % 1004,8 hPa 0,0 l/m 13,7 km/h (3 Bft) O-NO 67 3,8 C 2,3 C
04.04.2012 04:07 5,2 C 90 % 1004,6 hPa 0,0 l/m 12,2 km/h (2 Bft) O-NO 67 3,7 C 2,5 C
04.04.2012 04:12 5,2 C 90 % 1004,7 hPa 0,0 l/m 7,2 km/h (2 Bft) O-NO 67 3,7 C 3,6 C
04.04.2012 04:17 5,2 C 90 % 1004,8 hPa 0,0 l/m 5,0 km/h (1 Bft) O-NO 67 3,7 C 4,3 C
04.04.2012 04:22 5,2 C 90 % 1004,9 hPa 0,0 l/m 8,3 km/h (2 Bft) N-NO 22 3,7 C 3,3 C
04.04.2012 04:27 5,2 C 90 % 1004,7 hPa 0,0 l/m 7,2 km/h (2 Bft) NO 45 3,7 C 3,6 C
04.04.2012 04:32 5,2 C 90 % 1004,6 hPa 0,0 l/m 9,7 km/h (2 Bft) N-NO 22 3,7 C 3,0 C
04.04.2012 04:37 5,2 C 90 % 1004,5 hPa 0,0 l/m 8,6 km/h (2 Bft) O-NO 67 3,7 C 3,2 C
04.04.2012 04:42 5,1 C 90 % 1004,5 hPa 0,0 l/m 6,8 km/h (2 Bft) O-NO 67 3,6 C 3,6 C
04.04.2012 04:47 5,1 C 90 % 1004,5 hPa 0,0 l/m 7,2 km/h (2 Bft) O-NO 67 3,6 C 3,5 C
04.04.2012 04:52 5,1 C 90 % 1004,5 hPa 0,0 l/m 2,2 km/h (1 Bft) NO 45 3,6 C 5,1 C
04.04.2012 04:57 5,1 C 90 % 1004,5 hPa 0,0 l/m 5,4 km/h (1 Bft) N-NO 22 3,6 C 4,0 C
04.04.2012 05:02 5,1 C 90 % 1004,4 hPa 0,0 l/m 6,8 km/h (2 Bft) O-SO 112 3,6 C 3,6 C
04.04.2012 05:07 5,1 C 90 % 1004,3 hPa 0,0 l/m 12,6 km/h (3 Bft) O-NO 67 3,6 C 2,3 C
04.04.2012 05:12 5,1 C 90 % 1004,4 hPa 0,0 l/m 9,4 km/h (2 Bft) O-NO 67 3,6 C 2,9 C
04.04.2012 05:17 5,0 C 90 % 1004,5 hPa 0,0 l/m 6,5 km/h (2 Bft) NO 45 3,5 C 3,6 C
04.04.2012 05:22 5,0 C 90 % 1004,4 hPa 0,0 l/m 4,7 km/h (1 Bft) N-NO 22 3,5 C 4,2 C
04.04.2012 05:27 4,9 C 90 % 1004,6 hPa 0,0 l/m 12,2 km/h (2 Bft) O-NO 67 3,4 C 2,1 C
04.04.2012 05:32 4,9 C 90 % 1004,5 hPa 0,0 l/m 16,9 km/h (3 Bft) NO 45 3,4 C 1,3 C
04.04.2012 05:37 4,9 C 90 % 1004,4 hPa 0,0 l/m 10,4 km/h (2 Bft) NO 45 3,4 C 2,5 C
04.04.2012 05:42 4,8 C 90 % 1004,3 hPa 0,0 l/m 7,6 km/h (2 Bft) O-NO 67 3,3 C 3,0 C
04.04.2012 05:47 4,8 C 90 % 1004,1 hPa 0,0 l/m 7,6 km/h (2 Bft) N-NO 22 3,3 C 3,0 C
04.04.2012 05:52 4,8 C 90 % 1004,3 hPa 0,5 l/m 13,0 km/h (3 Bft) O 90 3,3 C 1,8 C
04.04.2012 05:57 4,7 C 90 % 1004,4 hPa 0,0 l/m 5,0 km/h (1 Bft) O-NO 67 3,2 C 3,7 C
04.04.2012 06:02 4,7 C 90 % 1004,3 hPa 0,0 l/m 5,0 km/h (1 Bft) NO 45 3,2 C 3,7 C
04.04.2012 06:07 4,6 C 90 % 1004,4 hPa 0,0 l/m 5,0 km/h (1 Bft) N-NO 22 3,1 C 3,6 C
04.04.2012 06:12 4,6 C 90 % 1004,5 hPa 0,0 l/m 15,8 km/h (3 Bft) O-NO 67 3,1 C 1,1 C
04.04.2012 06:17 4,6 C 90 % 1004,4 hPa 0,0 l/m 6,5 km/h (2 Bft) O-NO 67 3,1 C 3,1 C
04.04.2012 06:22 4,5 C 90 % 1004,4 hPa 0,0 l/m 10,4 km/h (2 Bft) O 90 3,0 C 2,0 C
04.04.2012 06:27 4,5 C 90 % 1004,4 hPa 0,0 l/m 4,3 km/h (1 Bft) O-NO 67 3,0 C 4,5 C
04.04.2012 06:32 4,5 C 90 % 1004,5 hPa 0,0 l/m 8,3 km/h (2 Bft) NO 45 3,0 C 2,5 C
04.04.2012 06:37 4,5 C 90 % 1004,3 hPa 0,0 l/m 8,6 km/h (2 Bft) O-NO 67 3,0 C 2,4 C
04.04.2012 06:42 4,5 C 90 % 1004,5 hPa 0,0 l/m 4,3 km/h (1 Bft) NO 45 3,0 C 4,5 C
04.04.2012 06:47 4,5 C 90 % 1004,5 hPa 0,0 l/m 3,2 km/h (1 Bft) NO 45 3,0 C 4,5 C
04.04.2012 06:52 4,5 C 90 % 1005,0 hPa 0,0 l/m 0,0 km/h (0 Bft) O-NO 67 3,0 C 4,5 C
04.04.2012 06:57 4,6 C 90 % 1005,6 hPa 0,0 l/m 2,9 km/h (1 Bft) S 180 3,1 C 4,6 C
04.04.2012 07:02 4,7 C 90 % 1006,0 hPa 0,5 l/m 4,0 km/h (1 Bft) S-SO 157 3,2 C 4,7 C
04.04.2012 07:07 4,8 C 90 % 1005,9 hPa 0,0 l/m 2,5 km/h (1 Bft) NO 45 3,3 C 4,8 C
04.04.2012 07:12 4,8 C 90 % 1005,7 hPa 0,5 l/m 3,6 km/h (1 Bft) N-NO 22 3,3 C 4,8 C
04.04.2012 07:17 4,6 C 90 % 1005,8 hPa 0,5 l/m 2,9 km/h (1 Bft) NO 45 3,1 C 4,6 C
04.04.2012 07:22 4,6 C 90 % 1005,9 hPa 0,5 l/m 4,0 km/h (1 Bft) NO 45 3,1 C 4,6 C
04.04.2012 07:27 4,6 C 90 % 1005,9 hPa 0,5 l/m 3,6 km/h (1 Bft) NO 45 3,1 C 4,6 C
04.04.2012 07:32 4,5 C 90 % 1005,9 hPa 0,0 l/m 4,3 km/h (1 Bft) N-NO 22 3,0 C 4,5 C
04.04.2012 07:37 4,5 C 90 % 1005,9 hPa 0,5 l/m 4,0 km/h (1 Bft) N-NO 22 3,0 C 4,5 C
04.04.2012 07:42 4,4 C 90 % 1006,0 hPa 0,0 l/m 3,6 km/h (1 Bft) N-NO 22 2,9 C 4,4 C
04.04.2012 07:47 4,4 C 90 % 1006,1 hPa 0,5 l/m 8,3 km/h (2 Bft) NO 45 2,9 C 2,4 C
04.04.2012 07:52 4,4 C 90 % 1006,3 hPa 0,0 l/m 5,0 km/h (1 Bft) N-NO 22 2,9 C 3,4 C
04.04.2012 07:57 4,4 C 90 % 1006,3 hPa 0,5 l/m 5,8 km/h (2 Bft) N-NO 22 2,9 C 3,1 C
04.04.2012 08:02 4,3 C 90 % 1006,5 hPa 0,0 l/m 6,8 km/h (2 Bft) NO 45 2,8 C 2,7 C
04.04.2012 08:07 4,3 C 91 % 1006,4 hPa 0,0 l/m 12,6 km/h (3 Bft) NO 45 3,0 C 1,3 C
04.04.2012 08:12 4,3 C 91 % 1006,3 hPa 0,5 l/m 10,1 km/h (2 Bft) NO 45 3,0 C 1,8 C
04.04.2012 08:17 4,3 C 91 % 1006,4 hPa 0,0 l/m 6,8 km/h (2 Bft) N-NW 337 3,0 C 2,7 C
04.04.2012 08:22 4,2 C 91 % 1006,4 hPa 0,0 l/m 9,7 km/h (2 Bft) N-NO 22 2,9 C 1,8 C
04.04.2012 08:27 4,2 C 91 % 1006,3 hPa 0,0 l/m 11,9 km/h (2 Bft) NO 45 2,9 C 1,3 C
04.04.2012 08:32 4,2 C 91 % 1006,3 hPa 0,0 l/m 19,4 km/h (3 Bft) NO 45 2,9 C 0,1 C
04.04.2012 08:37 4,2 C 91 % 1006,6 hPa 0,5 l/m 14,4 km/h (3 Bft) N-NO 22 2,9 C 0,9 C
04.04.2012 08:42 4,2 C 91 % 1006,4 hPa 0,0 l/m 6,8 km/h (2 Bft) N-NO 22 2,9 C 2,5 C
04.04.2012 08:47 4,2 C 91 % 1006,5 hPa 0,0 l/m 22,7 km/h (4 Bft) NO 45 2,9 C -0,3 C
04.04.2012 08:52 4,2 C 91 % 1006,5 hPa 0,0 l/m 10,1 km/h (2 Bft) NO 45 2,9 C 1,7 C
04.04.2012 08:57 4,2 C 91 % 1006,7 hPa 0,0 l/m 15,8 km/h (3 Bft) O 90 2,9 C 0,6 C
04.04.2012 09:02 4,2 C 91 % 1006,6 hPa 0,0 l/m 7,9 km/h (2 Bft) N-NO 22 2,9 C 2,2 C
04.04.2012 09:07 4,2 C 91 % 1006,5 hPa 0,0 l/m 12,6 km/h (3 Bft) NO 45 2,9 C 1,2 C
04.04.2012 09:12 4,3 C 91 % 1006,6 hPa 0,0 l/m 14,8 km/h (3 Bft) NO 45 3,0 C 0,9 C
04.04.2012 09:17 4,3 C 91 % 1006,6 hPa 0,0 l/m 10,1 km/h (2 Bft) O 90 3,0 C 1,8 C
04.04.2012 09:22 4,3 C 91 % 1006,5 hPa 0,0 l/m 9,0 km/h (2 Bft) O 90 3,0 C 2,1 C
04.04.2012 09:27 4,3 C 91 % 1006,7 hPa 0,5 l/m 2,9 km/h (1 Bft) O 90 3,0 C 4,3 C
04.04.2012 09:32 4,4 C 91 % 1006,4 hPa 0,0 l/m 13,3 km/h (3 Bft) NO 45 3,1 C 1,3 C
04.04.2012 09:37 4,4 C 91 % 1006,4 hPa 0,0 l/m 8,6 km/h (2 Bft) N-NO 22 3,1 C 2,3 C
04.04.2012 09:42 4,4 C 91 % 1006,7 hPa 0,0 l/m 15,1 km/h (3 Bft) N-NO 22 3,1 C 1,0 C
04.04.2012 09:47 4,4 C 91 % 1006,8 hPa 0,0 l/m 6,8 km/h (2 Bft) NO 45 3,1 C 2,8 C
04.04.2012 09:52 4,4 C 90 % 1006,7 hPa 0,0 l/m 5,8 km/h (2 Bft) O-NO 67 2,9 C 3,1 C
04.04.2012 09:57 4,4 C 90 % 1006,7 hPa 0,0 l/m 16,9 km/h (3 Bft) NO 45 2,9 C 0,7 C
04.04.2012 10:02 4,4 C 90 % 1006,6 hPa 0,0 l/m 9,0 km/h (2 Bft) N-NO 22 2,9 C 2,2 C
04.04.2012 10:07 4,4 C 90 % 1006,9 hPa 0,0 l/m 12,6 km/h (3 Bft) O-NO 67 2,9 C 1,4 C
04.04.2012 10:12 4,4 C 90 % 1006,9 hPa 0,0 l/m 6,8 km/h (2 Bft) O-NO 67 2,9 C 2,8 C
04.04.2012 10:17 4,4 C 90 % 1007,1 hPa 0,0 l/m 11,2 km/h (2 Bft) NO 45 2,9 C 1,7 C
04.04.2012 10:22 4,4 C 90 % 1007,1 hPa 0,0 l/m 11,9 km/h (2 Bft) O-NO 67 2,9 C 1,5 C
04.04.2012 10:27 4,4 C 90 % 1007,0 hPa 0,0 l/m 14,8 km/h (3 Bft) O-SO 112 2,9 C 1,0 C
04.04.2012 10:32 4,4 C 90 % 1006,9 hPa 0,0 l/m 18,4 km/h (3 Bft) O-NO 67 2,9 C 0,5 C
04.04.2012 10:37 4,5 C 90 % 1007,2 hPa 0,0 l/m 6,5 km/h (2 Bft) O 90 3,0 C 3,0 C
04.04.2012 10:42 4,6 C 90 % 1007,3 hPa 0,0 l/m 7,9 km/h (2 Bft) O-NO 67 3,1 C 2,7 C
04.04.2012 10:47 4,6 C 90 % 1007,3 hPa 0,0 l/m 11,2 km/h (2 Bft) NO 45 3,1 C 1,9 C
04.04.2012 10:52 4,6 C 90 % 1007,4 hPa 0,0 l/m 13,0 km/h (3 Bft) O-NO 67 3,1 C 1,6 C
04.04.2012 10:57 4,6 C 89 % 1007,5 hPa 0,0 l/m 7,6 km/h (2 Bft) O-NO 67 2,9 C 2,8 C
04.04.2012 11:02 4,6 C 89 % 1007,5 hPa 0,0 l/m 10,4 km/h (2 Bft) O-NO 67 2,9 C 2,1 C
04.04.2012 11:07 4,6 C 89 % 1007,6 hPa 0,0 l/m 12,2 km/h (2 Bft) NO 45 2,9 C 1,7 C
04.04.2012 11:12 4,6 C 89 % 1007,7 hPa 0,0 l/m 13,0 km/h (3 Bft) NO 45 2,9 C 1,6 C
04.04.2012 11:17 4,7 C 89 % 1007,8 hPa 0,0 l/m 21,2 km/h (4 Bft) O-NO 67 3,0 C 0,5 C
04.04.2012 11:22 4,7 C 89 % 1007,9 hPa 0,0 l/m 19,1 km/h (3 Bft) O-NO 67 3,0 C 0,8 C
04.04.2012 11:27 4,7 C 89 % 1008,0 hPa 0,0 l/m 11,2 km/h (2 Bft) O-NO 67 3,0 C 2,0 C
04.04.2012 11:32 4,7 C 89 % 1008,1 hPa 0,0 l/m 9,7 km/h (2 Bft) O-NO 67 3,0 C 2,4 C
04.04.2012 11:37 4,7 C 89 % 1008,2 hPa 0,0 l/m 6,1 km/h (2 Bft) N-NO 22 3,0 C 3,3 C
04.04.2012 11:42 4,7 C 89 % 1008,5 hPa 0,0 l/m 11,5 km/h (2 Bft) O-NO 67 3,0 C 2,0 C
04.04.2012 11:47 4,7 C 89 % 1008,6 hPa 0,0 l/m 16,9 km/h (3 Bft) O 90 3,0 C 1,1 C
04.04.2012 11:52 4,6 C 89 % 1008,7 hPa 0,0 l/m 10,1 km/h (2 Bft) O-NO 67 2,9 C 2,2 C
04.04.2012 11:57 4,6 C 89 % 1008,9 hPa 0,0 l/m 5,0 km/h (1 Bft) O-NO 67 2,9 C 3,6 C
04.04.2012 12:02 4,6 C 89 % 1009,1 hPa 0,0 l/m 15,5 km/h (3 Bft) NO 45 2,9 C 1,2 C
04.04.2012 12:07 4,6 C 89 % 1009,2 hPa 0,0 l/m 10,1 km/h (2 Bft) N-NO 22 2,9 C 2,2 C
04.04.2012 12:12 4,6 C 89 % 1009,2 hPa 0,0 l/m 5,0 km/h (1 Bft) O-NO 67 2,9 C 3,6 C
04.04.2012 12:17 4,7 C 89 % 1009,3 hPa 0,5 l/m 4,7 km/h (1 Bft) O 90 3,0 C 3,9 C
04.04.2012 12:22 4,7 C 89 % 1009,2 hPa 0,0 l/m 1,4 km/h (1 Bft) N 360 3,0 C 4,7 C
04.04.2012 12:27 4,7 C 89 % 1009,2 hPa 0,0 l/m 11,2 km/h (2 Bft) O-NO 67 3,0 C 2,0 C
04.04.2012 12:32 4,7 C 89 % 1009,1 hPa 0,0 l/m 5,4 km/h (1 Bft) O 90 3,0 C 3,6 C
04.04.2012 12:37 4,8 C 89 % 1009,3 hPa 0,0 l/m 3,2 km/h (1 Bft) O-NO 67 3,1 C 4,8 C
04.04.2012 12:42 4,8 C 89 % 1009,4 hPa 0,0 l/m 1,4 km/h (1 Bft) NO 45 3,1 C 4,8 C
04.04.2012 12:47 4,8 C 89 % 1009,6 hPa 0,0 l/m 5,8 km/h (2 Bft) O-SO 112 3,1 C 3,6 C
04.04.2012 12:52 4,8 C 89 % 1009,8 hPa 0,0 l/m 2,2 km/h (1 Bft) O-NO 67 3,1 C 4,8 C
04.04.2012 12:57 4,8 C 89 % 1009,9 hPa 0,0 l/m 4,7 km/h (1 Bft) NO 45 3,1 C 4,0 C
04.04.2012 13:02 4,8 C 89 % 1010,2 hPa 0,0 l/m 7,6 km/h (2 Bft) NO 45 3,1 C 3,0 C
04.04.2012 13:07 4,8 C 89 % 1010,2 hPa 0,0 l/m 2,5 km/h (1 Bft) NO 45 3,1 C 4,8 C
04.04.2012 13:12 4,8 C 89 % 1010,3 hPa 0,0 l/m 0,0 km/h (0 Bft) O-NO 67 3,1 C 4,8 C
04.04.2012 13:17 4,8 C 89 % 1010,4 hPa 0,0 l/m 3,6 km/h (1 Bft) N-NO 22 3,1 C 4,8 C
04.04.2012 13:22 4,8 C 89 % 1010,4 hPa 0,0 l/m 10,8 km/h (2 Bft) O-NO 67 3,1 C 2,2 C
04.04.2012 13:27 4,8 C 89 % 1010,4 hPa 0,5 l/m 4,3 km/h (1 Bft) O-NO 67 3,1 C 4,8 C
04.04.2012 13:32 4,8 C 89 % 1010,4 hPa 0,0 l/m 5,4 km/h (1 Bft) O-NO 67 3,1 C 3,7 C
04.04.2012 13:37 4,8 C 89 % 1010,4 hPa 0,0 l/m 9,4 km/h (2 Bft) O-NO 67 3,1 C 2,6 C
04.04.2012 13:42 4,7 C 89 % 1010,5 hPa 0,0 l/m 4,7 km/h (1 Bft) O 90 3,0 C 3,9 C
04.04.2012 13:47 4,8 C 89 % 1010,7 hPa 0,0 l/m 8,3 km/h (2 Bft) NO 45 3,1 C 2,8 C
04.04.2012 13:52 4,8 C 89 % 1010,8 hPa 0,0 l/m 4,0 km/h (1 Bft) NO 45 3,1 C 4,8 C
04.04.2012 13:57 4,8 C 89 % 1010,7 hPa 0,0 l/m 4,7 km/h (1 Bft) O-NO 67 3,1 C 4,0 C
04.04.2012 14:02 4,8 C 89 % 1010,9 hPa 0,0 l/m 3,2 km/h (1 Bft) O-NO 67 3,1 C 4,8 C
04.04.2012 14:07 4,8 C 89 % 1010,9 hPa 0,0 l/m 7,6 km/h (2 Bft) O-NO 67 3,1 C 3,0 C
04.04.2012 14:12 4,8 C 89 % 1011,1 hPa 0,0 l/m 6,8 km/h (2 Bft) O-NO 67 3,1 C 3,2 C
04.04.2012 14:17 4,8 C 89 % 1011,1 hPa 0,5 l/m 8,3 km/h (2 Bft) O-NO 67 3,1 C 2,8 C
04.04.2012 14:22 4,8 C 89 % 1011,1 hPa 0,0 l/m 2,9 km/h (1 Bft) O-NO 67 3,1 C 4,8 C
04.04.2012 14:27 4,8 C 89 % 1011,1 hPa 0,0 l/m 7,6 km/h (2 Bft) O 90 3,1 C 3,0 C
04.04.2012 14:32 4,8 C 89 % 1011,2 hPa 0,0 l/m 3,2 km/h (1 Bft) O-NO 67 3,1 C 4,8 C
04.04.2012 14:37 4,8 C 89 % 1011,2 hPa 0,0 l/m 0,0 km/h (0 Bft) O 90 3,1 C 4,8 C
04.04.2012 14:42 4,8 C 89 % 1011,4 hPa 0,0 l/m 6,8 km/h (2 Bft) NO 45 3,1 C 3,2 C
04.04.2012 14:47 4,8 C 89 % 1011,4 hPa 0,0 l/m 6,1 km/h (2 Bft) O-NO 67 3,1 C 3,5 C
04.04.2012 14:52 4,7 C 89 % 1011,5 hPa 0,0 l/m 7,6 km/h (2 Bft) N-NO 22 3,0 C 2,9 C
04.04.2012 14:57 4,7 C 89 % 1011,6 hPa 0,0 l/m 5,8 km/h (2 Bft) O-SO 112 3,0 C 3,4 C
04.04.2012 15:02 4,7 C 89 % 1011,6 hPa 0,0 l/m 14,4 km/h (3 Bft) O-NO 67 3,0 C 1,5 C
04.04.2012 15:07 4,7 C 89 % 1011,7 hPa 0,0 l/m 6,1 km/h (2 Bft) O-NO 67 3,0 C 3,3 C
04.04.2012 15:12 4,8 C 89 % 1011,7 hPa 0,0 l/m 12,6 km/h (3 Bft) N-NO 22 3,1 C 1,9 C
04.04.2012 15:17 4,8 C 89 % 1011,8 hPa 0,0 l/m 4,0 km/h (1 Bft) NO 45 3,1 C 4,8 C
04.04.2012 15:22 4,8 C 89 % 1011,9 hPa 0,0 l/m 6,5 km/h (2 Bft) O-NO 67 3,1 C 3,3 C
04.04.2012 15:27 4,8 C 89 % 1012,0 hPa 0,0 l/m 7,9 km/h (2 Bft) O-NO 67 3,1 C 2,9 C
04.04.2012 15:32 4,8 C 89 % 1012,1 hPa 0,0 l/m 6,1 km/h (2 Bft) O-NO 67 3,1 C 3,5 C
04.04.2012 15:37 4,8 C 89 % 1012,1 hPa 0,0 l/m 6,5 km/h (2 Bft) O 90 3,1 C 3,3 C
04.04.2012 15:42 4,8 C 89 % 1012,2 hPa 0,0 l/m 5,8 km/h (2 Bft) O-SO 112 3,1 C 3,6 C
04.04.2012 15:47 4,8 C 89 % 1012,2 hPa 0,0 l/m 5,0 km/h (1 Bft) O 90 3,1 C 3,9 C
04.04.2012 15:52 4,9 C 89 % 1012,2 hPa 0,0 l/m 2,9 km/h (1 Bft) O-NO 67 3,2 C 4,9 C
04.04.2012 15:57 4,9 C 89 % 1012,4 hPa 0,0 l/m 3,6 km/h (1 Bft) NO 45 3,2 C 4,9 C
04.04.2012 16:02 4,9 C 89 % 1012,3 hPa 0,0 l/m 9,4 km/h (2 Bft) O-NO 67 3,2 C 2,7 C
04.04.2012 16:07 4,8 C 89 % 1012,3 hPa 0,0 l/m 7,2 km/h (2 Bft) NO 45 3,1 C 3,1 C
04.04.2012 16:12 4,8 C 89 % 1012,4 hPa 0,0 l/m 5,0 km/h (1 Bft) NO 45 3,1 C 3,9 C
04.04.2012 16:17 4,8 C 89 % 1012,4 hPa 0,0 l/m 6,1 km/h (2 Bft) N-NO 22 3,1 C 3,5 C
04.04.2012 16:22 4,7 C 89 % 1012,5 hPa 0,0 l/m 5,4 km/h (1 Bft) NO 45 3,0 C 3,6 C
04.04.2012 16:27 4,8 C 89 % 1012,7 hPa 0,0 l/m 13,0 km/h (3 Bft) N-NO 22 3,1 C 1,8 C
04.04.2012 16:32 4,7 C 89 % 1012,4 hPa 0,0 l/m 9,7 km/h (2 Bft) O 90 3,0 C 2,4 C
04.04.2012 16:37 4,6 C 89 % 1012,4 hPa 0,0 l/m 6,5 km/h (2 Bft) NO 45 2,9 C 3,1 C
04.04.2012 16:42 4,6 C 89 % 1012,6 hPa 0,0 l/m 5,8 km/h (2 Bft) O 90 2,9 C 3,3 C
04.04.2012 16:47 4,7 C 89 % 1012,7 hPa 0,0 l/m 4,7 km/h (1 Bft) O-NO 67 3,0 C 3,9 C
04.04.2012 16:52 4,6 C 88 % 1012,7 hPa 0,0 l/m 2,5 km/h (1 Bft) O-NO 67 2,8 C 4,6 C
04.04.2012 16:57 4,6 C 88 % 1012,8 hPa 0,0 l/m 9,7 km/h (2 Bft) O 90 2,8 C 2,2 C
04.04.2012 17:02 4,6 C 88 % 1012,8 hPa 0,0 l/m 5,0 km/h (1 Bft) NO 45 2,8 C 3,6 C
04.04.2012 17:07 4,5 C 88 % 1012,8 hPa 0,0 l/m 4,7 km/h (1 Bft) NO 45 2,7 C 3,6 C
04.04.2012 17:12 4,5 C 88 % 1012,9 hPa 0,0 l/m 6,1 km/h (2 Bft) N 360 2,7 C 3,1 C
04.04.2012 17:17 4,5 C 88 % 1013,0 hPa 0,0 l/m 12,6 km/h (3 Bft) O-NO 67 2,7 C 1,5 C
04.04.2012 17:22 4,4 C 88 % 1013,1 hPa 0,0 l/m 5,8 km/h (2 Bft) N-NO 22 2,6 C 3,1 C
04.04.2012 17:27 4,4 C 88 % 1013,1 hPa 0,0 l/m 7,6 km/h (2 Bft) O-NO 67 2,6 C 2,5 C
04.04.2012 17:32 4,4 C 88 % 1013,1 hPa 0,0 l/m 10,8 km/h (2 Bft) N-NO 22 2,6 C 1,8 C
04.04.2012 17:37 4,4 C 88 % 1013,1 hPa 0,0 l/m 6,8 km/h (2 Bft) O-NO 67 2,6 C 2,8 C
04.04.2012 17:42 4,3 C 88 % 1013,2 hPa 0,0 l/m 13,3 km/h (3 Bft) O-NO 67 2,5 C 1,2 C
04.04.2012 17:47 4,4 C 88 % 1013,2 hPa 0,0 l/m 4,0 km/h (1 Bft) NO 45 2,6 C 4,4 C
04.04.2012 17:52 4,4 C 88 % 1013,3 hPa 0,0 l/m 13,0 km/h (3 Bft) NO 45 2,6 C 1,3 C
04.04.2012 17:57 4,4 C 88 % 1013,4 hPa 0,0 l/m 8,6 km/h (2 Bft) O-NO 67 2,6 C 2,3 C
04.04.2012 18:02 4,4 C 88 % 1013,5 hPa 0,0 l/m 6,1 km/h (2 Bft) NO 45 2,6 C 3,0 C
04.04.2012 18:07 4,4 C 88 % 1013,5 hPa 0,0 l/m 11,9 km/h (2 Bft) O 90 2,6 C 1,5 C
04.04.2012 18:12 4,3 C 88 % 1013,6 hPa 0,0 l/m 7,9 km/h (2 Bft) N-NO 22 2,5 C 2,3 C
04.04.2012 18:17 4,3 C 88 % 1013,7 hPa 0,0 l/m 5,8 km/h (2 Bft) O 90 2,5 C 3,0 C
04.04.2012 18:22 4,3 C 88 % 1013,7 hPa 0,0 l/m 8,3 km/h (2 Bft) O 90 2,5 C 2,2 C
04.04.2012 18:27 4,3 C 88 % 1013,7 hPa 0,0 l/m 6,5 km/h (2 Bft) O 90 2,5 C 2,8 C
04.04.2012 18:32 4,3 C 88 % 1013,7 hPa 0,0 l/m 4,3 km/h (1 Bft) O-SO 112 2,5 C 4,3 C
04.04.2012 18:37 4,3 C 88 % 1013,7 hPa 0,0 l/m 2,9 km/h (1 Bft) O-NO 67 2,5 C 4,3 C
04.04.2012 18:42 4,3 C 88 % 1013,7 hPa 0,0 l/m 5,8 km/h (2 Bft) O-NO 67 2,5 C 3,0 C
04.04.2012 18:47 4,3 C 88 % 1013,9 hPa 0,0 l/m 9,7 km/h (2 Bft) O-NO 67 2,5 C 1,9 C
04.04.2012 18:52 4,3 C 88 % 1014,0 hPa 0,0 l/m 2,2 km/h (1 Bft) NO 45 2,5 C 4,3 C
04.04.2012 18:57 4,2 C 88 % 1014,0 hPa 0,0 l/m 6,5 km/h (2 Bft) O-NO 67 2,4 C 2,6 C
04.04.2012 19:02 4,3 C 88 % 1014,1 hPa 0,0 l/m 4,0 km/h (1 Bft) O-NO 67 2,5 C 4,3 C
04.04.2012 19:07 4,3 C 88 % 1014,1 hPa 0,0 l/m 3,6 km/h (1 Bft) O 90 2,5 C 4,3 C
04.04.2012 19:12 4,3 C 88 % 1014,3 hPa 0,0 l/m 4,0 km/h (1 Bft) O-NO 67 2,5 C 4,3 C
04.04.2012 19:17 4,3 C 88 % 1014,3 hPa 0,0 l/m 4,7 km/h (1 Bft) N-NO 22 2,5 C 3,4 C
04.04.2012 19:22 4,2 C 88 % 1014,5 hPa 0,0 l/m 4,0 km/h (1 Bft) NO 45 2,4 C 4,2 C
04.04.2012 19:27 4,2 C 88 % 1014,5 hPa 0,0 l/m 7,6 km/h (2 Bft) O 90 2,4 C 2,3 C
04.04.2012 19:32 4,2 C 88 % 1014,6 hPa 0,0 l/m 10,8 km/h (2 Bft) O-NO 67 2,4 C 1,5 C
04.04.2012 19:37 4,1 C 88 % 1014,6 hPa 0,0 l/m 7,2 km/h (2 Bft) O-NO 67 2,3 C 2,3 C
04.04.2012 19:42 4,1 C 88 % 1014,8 hPa 0,0 l/m 5,4 km/h (1 Bft) O-NO 67 2,3 C 2,9 C
04.04.2012 19:47 4,1 C 88 % 1014,8 hPa 0,0 l/m 9,7 km/h (2 Bft) O 90 2,3 C 1,7 C
04.04.2012 19:52 4,1 C 88 % 1014,9 hPa 0,0 l/m 4,7 km/h (1 Bft) O 90 2,3 C 3,2 C
04.04.2012 19:57 4,1 C 88 % 1014,9 hPa 0,0 l/m 4,3 km/h (1 Bft) NO 45 2,3 C 4,1 C
04.04.2012 20:02 4,1 C 88 % 1014,9 hPa 0,0 l/m 5,8 km/h (2 Bft) O 90 2,3 C 2,8 C
04.04.2012 20:07 4,1 C 88 % 1015,0 hPa 0,0 l/m 3,6 km/h (1 Bft) NO 45 2,3 C 4,1 C
04.04.2012 20:12 4,1 C 88 % 1015,1 hPa 0,0 l/m 3,2 km/h (1 Bft) O 90 2,3 C 4,1 C
04.04.2012 20:17 4,1 C 88 % 1015,2 hPa 0,0 l/m 8,6 km/h (2 Bft) O-NO 67 2,3 C 1,9 C
04.04.2012 20:22 4,1 C 88 % 1015,3 hPa 0,0 l/m 8,3 km/h (2 Bft) N-NO 22 2,3 C 2,0 C
04.04.2012 20:27 4,1 C 88 % 1015,4 hPa 0,0 l/m 9,0 km/h (2 Bft) N-NO 22 2,3 C 1,8 C
04.04.2012 20:32 4,0 C 87 % 1015,5 hPa 0,0 l/m 3,6 km/h (1 Bft) O-SO 112 2,0 C 4,0 C
04.04.2012 20:37 3,9 C 87 % 1015,5 hPa 0,0 l/m 5,0 km/h (1 Bft) O 90 1,9 C 2,8 C
04.04.2012 20:42 3,9 C 87 % 1015,6 hPa 0,0 l/m 6,1 km/h (2 Bft) O-NO 67 1,9 C 2,4 C
04.04.2012 20:47 3,9 C 87 % 1015,6 hPa 0,0 l/m 7,9 km/h (2 Bft) O-NO 67 1,9 C 1,9 C
04.04.2012 20:52 3,9 C 87 % 1015,7 hPa 0,0 l/m 5,4 km/h (1 Bft) NO 45 1,9 C 2,7 C
04.04.2012 20:57 3,9 C 87 % 1015,8 hPa 0,0 l/m 7,2 km/h (2 Bft) O 90 1,9 C 2,1 C
04.04.2012 21:02 3,9 C 87 % 1015,8 hPa 0,0 l/m 6,8 km/h (2 Bft) O 90 1,9 C 2,2 C
04.04.2012 21:07 3,9 C 87 % 1016,0 hPa 0,0 l/m 7,6 km/h (2 Bft) O-NO 67 1,9 C 2,0 C
04.04.2012 21:12 3,9 C 87 % 1016,0 hPa 0,0 l/m 6,5 km/h (2 Bft) N-NO 22 1,9 C 2,3 C
04.04.2012 21:17 3,9 C 87 % 1016,0 hPa 0,0 l/m 4,3 km/h (1 Bft) O-NO 67 1,9 C 3,9 C
04.04.2012 21:22 3,9 C 87 % 1016,0 hPa 0,0 l/m 6,8 km/h (2 Bft) NO 45 1,9 C 2,2 C
04.04.2012 21:27 3,9 C 87 % 1016,0 hPa 0,0 l/m 6,1 km/h (2 Bft) NO 45 1,9 C 2,4 C
04.04.2012 21:32 3,9 C 87 % 1016,3 hPa 0,0 l/m 5,8 km/h (2 Bft) NO 45 1,9 C 2,5 C
04.04.2012 21:37 3,9 C 87 % 1016,4 hPa 0,0 l/m 9,4 km/h (2 Bft) O-NO 67 1,9 C 1,5 C
04.04.2012 21:42 3,9 C 87 % 1016,2 hPa 0,0 l/m 3,2 km/h (1 Bft) O-NO 67 1,9 C 3,9 C
04.04.2012 21:47 3,9 C 87 % 1016,4 hPa 0,0 l/m 2,5 km/h (1 Bft) O-NO 67 1,9 C 3,9 C
04.04.2012 21:52 3,9 C 87 % 1016,4 hPa 0,0 l/m 2,5 km/h (1 Bft) O-NO 67 1,9 C 3,9 C
04.04.2012 21:57 3,9 C 87 % 1016,4 hPa 0,0 l/m 3,6 km/h (1 Bft) O-NO 67 1,9 C 3,9 C
04.04.2012 22:02 3,9 C 87 % 1016,7 hPa 0,0 l/m 4,7 km/h (1 Bft) O-NO 67 1,9 C 3,0 C
04.04.2012 22:07 3,9 C 87 % 1016,4 hPa 0,0 l/m 5,8 km/h (2 Bft) O-NO 67 1,9 C 2,5 C
04.04.2012 22:12 3,9 C 87 % 1016,4 hPa 0,0 l/m 9,7 km/h (2 Bft) O-NO 67 1,9 C 1,4 C
04.04.2012 22:17 3,8 C 87 % 1016,5 hPa 0,0 l/m 7,2 km/h (2 Bft) O-NO 67 1,8 C 2,0 C
04.04.2012 22:22 3,8 C 87 % 1016,6 hPa 0,0 l/m 14,4 km/h (3 Bft) NO 45 1,8 C 0,4 C
04.04.2012 22:27 3,8 C 87 % 1016,5 hPa 0,0 l/m 4,0 km/h (1 Bft) O-NO 67 1,8 C 3,8 C
04.04.2012 22:32 3,8 C 87 % 1016,6 hPa 0,0 l/m 2,5 km/h (1 Bft) O-NO 67 1,8 C 3,8 C
04.04.2012 22:37 3,8 C 87 % 1016,7 hPa 0,0 l/m 7,9 km/h (2 Bft) O-NO 67 1,8 C 1,8 C
04.04.2012 22:42 3,8 C 87 % 1016,5 hPa 0,0 l/m 13,3 km/h (3 Bft) O 90 1,8 C 0,6 C
04.04.2012 22:47 3,8 C 87 % 1016,7 hPa 0,0 l/m 4,0 km/h (1 Bft) O-NO 67 1,8 C 3,8 C
04.04.2012 22:52 3,8 C 87 % 1016,7 hPa 0,0 l/m 7,2 km/h (2 Bft) NO 45 1,8 C 2,0 C
04.04.2012 22:57 3,7 C 87 % 1016,8 hPa 0,0 l/m 4,7 km/h (1 Bft) O-NO 67 1,7 C 2,7 C
04.04.2012 23:02 3,7 C 87 % 1016,8 hPa 0,0 l/m 6,1 km/h (2 Bft) O-NO 67 1,7 C 2,2 C
04.04.2012 23:07 3,6 C 87 % 1017,0 hPa 0,0 l/m 6,8 km/h (2 Bft) O 90 1,6 C 1,8 C
04.04.2012 23:12 3,6 C 87 % 1017,0 hPa 0,0 l/m 2,5 km/h (1 Bft) O-NO 67 1,6 C 3,6 C
04.04.2012 23:17 3,6 C 87 % 1017,1 hPa 0,0 l/m 5,0 km/h (1 Bft) O-NO 67 1,6 C 2,5 C
04.04.2012 23:22 3,6 C 87 % 1017,1 hPa 0,0 l/m 5,4 km/h (1 Bft) O-NO 67 1,6 C 2,3 C
04.04.2012 23:27 3,7 C 87 % 1017,0 hPa 0,0 l/m 6,8 km/h (2 Bft) O-NO 67 1,7 C 2,0 C
04.04.2012 23:32 3,7 C 87 % 1017,3 hPa 0,0 l/m 3,2 km/h (1 Bft) O 90 1,7 C 3,7 C
04.04.2012 23:37 3,6 C 87 % 1017,3 hPa 0,0 l/m 7,9 km/h (2 Bft) O 90 1,6 C 1,5 C
04.04.2012 23:42 3,7 C 87 % 1017,3 hPa 0,0 l/m 4,7 km/h (1 Bft) O-NO 67 1,7 C 2,7 C
04.04.2012 23:47 3,6 C 87 % 1017,4 hPa 0,0 l/m 4,3 km/h (1 Bft) O 90 1,6 C 3,6 C
04.04.2012 23:52 3,6 C 87 % 1017,4 hPa 0,0 l/m 3,6 km/h (1 Bft) O-NO 67 1,6 C 3,6 C
04.04.2012 23:57 3,6 C 87 % 1017,4 hPa 0,0 l/m 9,0 km/h (2 Bft) O-NO 67 1,6 C 1,2 C
_ Min-Zeit 23:07 20:32 05:47 - 02:37 - - 23:07 08:47
Minimum _ 3,6 C 87 % 1004,1 hPa - 0,0 km/h (0 Bft) - - 1,6 C -0,3 C
_ Max-Zeit 00:02 08:07 23:47 05:52 08:47 - - 00:02 00:32
Maximum _ 5,8 C 91 % 1017,4 hPa 0,5 l/m 22,7 km/h
NO (4 Bft)
- - 4,1 C 5,6 C
Durchschnitt _ 4,6 C 89 % 1009,6 hPa #7,8 l/m 7,4 km/h (2 Bft) O-NO - 2,9 C 3,1 C
(c) by David Heller